sensor_id;sensor_type;location;lat;lon;timestamp;temperature;humidity
11617;DHT22;5864;52.998;9.068;2022-07-24T00:00:09;16.50;99.90
11617;DHT22;5864;52.998;9.068;2022-07-24T00:02:38;16.50;99.90
11617;DHT22;5864;52.998;9.068;2022-07-24T00:05:06;16.40;99.90
11617;DHT22;5864;52.998;9.068;2022-07-24T00:07:34;16.40;99.90
11617;DHT22;5864;52.998;9.068;2022-07-24T00:10:02;16.30;99.90
11617;DHT22;5864;52.998;9.068;2022-07-24T00:12:30;16.30;99.90
11617;DHT22;5864;52.998;9.068;2022-07-24T00:14:58;16.30;99.90
11617;DHT22;5864;52.998;9.068;2022-07-24T00:17:26;16.30;99.90
11617;DHT22;5864;52.998;9.068;2022-07-24T00:19:55;16.30;99.90
11617;DHT22;5864;52.998;9.068;2022-07-24T00:22:22;16.20;99.90
11617;DHT22;5864;52.998;9.068;2022-07-24T00:24:50;16.20;99.90
11617;DHT22;5864;52.998;9.068;2022-07-24T00:27:18;16.20;99.90
11617;DHT22;5864;52.998;9.068;2022-07-24T00:29:45;16.10;99.90
11617;DHT22;5864;52.998;9.068;2022-07-24T00:32:13;16.10;99.90
11617;DHT22;5864;52.998;9.068;2022-07-24T00:34:40;16.00;99.90
11617;DHT22;5864;52.998;9.068;2022-07-24T00:37:09;16.00;99.90
11617;DHT22;5864;52.998;9.068;2022-07-24T00:39:37;15.90;99.90
11617;DHT22;5864;52.998;9.068;2022-07-24T00:42:05;15.90;99.90
11617;DHT22;5864;52.998;9.068;2022-07-24T00:44:32;15.90;99.90
11617;DHT22;5864;52.998;9.068;2022-07-24T00:47:00;15.90;99.90
11617;DHT22;5864;52.998;9.068;2022-07-24T00:49:27;15.80;99.90
11617;DHT22;5864;52.998;9.068;2022-07-24T00:51:55;15.90;99.90
11617;DHT22;5864;52.998;9.068;2022-07-24T00:54:24;15.90;99.90
11617;DHT22;5864;52.998;9.068;2022-07-24T00:56:53;15.80;99.90
11617;DHT22;5864;52.998;9.068;2022-07-24T00:59:21;15.80;99.90
11617;DHT22;5864;52.998;9.068;2022-07-24T01:01:50;15.70;99.90
11617;DHT22;5864;52.998;9.068;2022-07-24T01:04:18;15.80;99.90
11617;DHT22;5864;52.998;9.068;2022-07-24T01:06:46;15.70;99.90
11617;DHT22;5864;52.998;9.068;2022-07-24T01:09:14;15.70;99.90
11617;DHT22;5864;52.998;9.068;2022-07-24T01:11:43;15.80;99.90
11617;DHT22;5864;52.998;9.068;2022-07-24T01:14:11;15.80;99.90
11617;DHT22;5864;52.998;9.068;2022-07-24T01:16:39;15.70;99.90
11617;DHT22;5864;52.998;9.068;2022-07-24T01:19:06;15.70;99.90
11617;DHT22;5864;52.998;9.068;2022-07-24T01:21:35;15.70;99.90
11617;DHT22;5864;52.998;9.068;2022-07-24T01:24:04;15.60;99.90
11617;DHT22;5864;52.998;9.068;2022-07-24T01:26:31;15.60;99.90
11617;DHT22;5864;52.998;9.068;2022-07-24T01:28:59;15.60;99.90
11617;DHT22;5864;52.998;9.068;2022-07-24T01:31:26;15.50;99.90
11617;DHT22;5864;52.998;9.068;2022-07-24T01:33:53;15.50;99.90
11617;DHT22;5864;52.998;9.068;2022-07-24T01:36:21;15.60;99.90
11617;DHT22;5864;52.998;9.068;2022-07-24T01:38:50;15.60;99.90
11617;DHT22;5864;52.998;9.068;2022-07-24T01:41:17;15.60;99.90
11617;DHT22;5864;52.998;9.068;2022-07-24T01:43:45;15.50;99.90
11617;DHT22;5864;52.998;9.068;2022-07-24T01:46:12;15.50;99.90
11617;DHT22;5864;52.998;9.068;2022-07-24T01:48:41;15.50;99.90
11617;DHT22;5864;52.998;9.068;2022-07-24T01:51:09;15.50;99.90
11617;DHT22;5864;52.998;9.068;2022-07-24T01:53:37;15.40;99.90
11617;DHT22;5864;52.998;9.068;2022-07-24T01:56:06;15.30;99.90
11617;DHT22;5864;52.998;9.068;2022-07-24T01:58:34;15.30;99.90
11617;DHT22;5864;52.998;9.068;2022-07-24T02:01:01;15.30;99.90
11617;DHT22;5864;52.998;9.068;2022-07-24T02:03:29;15.30;99.90
11617;DHT22;5864;52.998;9.068;2022-07-24T02:05:56;15.30;99.90
11617;DHT22;5864;52.998;9.068;2022-07-24T02:08:24;15.20;99.90
11617;DHT22;5864;52.998;9.068;2022-07-24T02:10:51;15.10;99.90
11617;DHT22;5864;52.998;9.068;2022-07-24T02:13:20;15.10;99.90
11617;DHT22;5864;52.998;9.068;2022-07-24T02:15:48;14.90;99.90
11617;DHT22;5864;52.998;9.068;2022-07-24T02:18:15;14.90;99.90
11617;DHT22;5864;52.998;9.068;2022-07-24T02:20:43;14.80;99.90
11617;DHT22;5864;52.998;9.068;2022-07-24T02:23:10;14.80;99.90
11617;DHT22;5864;52.998;9.068;2022-07-24T02:25:44;14.80;99.90
11617;DHT22;5864;52.998;9.068;2022-07-24T02:28:13;14.90;99.90
11617;DHT22;5864;52.998;9.068;2022-07-24T02:30:42;14.90;99.90
11617;DHT22;5864;52.998;9.068;2022-07-24T02:33:10;14.90;99.90
11617;DHT22;5864;52.998;9.068;2022-07-24T02:35:38;14.90;99.90
11617;DHT22;5864;52.998;9.068;2022-07-24T02:38:05;14.90;99.90
11617;DHT22;5864;52.998;9.068;2022-07-24T02:40:33;14.80;99.90
11617;DHT22;5864;52.998;9.068;2022-07-24T02:43:00;14.80;99.90
11617;DHT22;5864;52.998;9.068;2022-07-24T02:45:28;14.70;99.90
11617;DHT22;5864;52.998;9.068;2022-07-24T02:47:58;14.70;99.90
11617;DHT22;5864;52.998;9.068;2022-07-24T02:50:30;14.70;99.90
11617;DHT22;5864;52.998;9.068;2022-07-24T02:52:58;14.70;99.90
11617;DHT22;5864;52.998;9.068;2022-07-24T02:55:25;14.70;99.90
11617;DHT22;5864;52.998;9.068;2022-07-24T02:57:54;14.60;99.90
11617;DHT22;5864;52.998;9.068;2022-07-24T03:00:22;14.60;99.90
11617;DHT22;5864;52.998;9.068;2022-07-24T03:02:50;14.50;99.90
11617;DHT22;5864;52.998;9.068;2022-07-24T03:05:19;14.40;99.90
11617;DHT22;5864;52.998;9.068;2022-07-24T03:07:47;14.50;99.90
11617;DHT22;5864;52.998;9.068;2022-07-24T03:10:15;14.50;99.90
11617;DHT22;5864;52.998;9.068;2022-07-24T03:12:43;14.40;99.90
11617;DHT22;5864;52.998;9.068;2022-07-24T03:15:11;14.50;99.90
11617;DHT22;5864;52.998;9.068;2022-07-24T03:17:39;14.50;99.90
11617;DHT22;5864;52.998;9.068;2022-07-24T03:20:09;14.50;99.90
11617;DHT22;5864;52.998;9.068;2022-07-24T03:22:38;14.50;99.90
11617;DHT22;5864;52.998;9.068;2022-07-24T03:25:06;14.50;99.90
11617;DHT22;5864;52.998;9.068;2022-07-24T03:27:33;14.50;99.90
11617;DHT22;5864;52.998;9.068;2022-07-24T03:30:01;14.50;99.90
11617;DHT22;5864;52.998;9.068;2022-07-24T03:32:28;14.40;99.90
11617;DHT22;5864;52.998;9.068;2022-07-24T03:34:56;14.40;99.90
11617;DHT22;5864;52.998;9.068;2022-07-24T03:37:24;14.50;99.90
11617;DHT22;5864;52.998;9.068;2022-07-24T03:39:53;14.40;99.90
11617;DHT22;5864;52.998;9.068;2022-07-24T03:42:20;14.30;99.90
11617;DHT22;5864;52.998;9.068;2022-07-24T03:44:48;14.30;99.90
11617;DHT22;5864;52.998;9.068;2022-07-24T03:47:15;14.30;99.90
11617;DHT22;5864;52.998;9.068;2022-07-24T03:49:43;14.20;99.90
11617;DHT22;5864;52.998;9.068;2022-07-24T03:52:10;14.20;99.90
11617;DHT22;5864;52.998;9.068;2022-07-24T03:54:38;14.20;99.90
11617;DHT22;5864;52.998;9.068;2022-07-24T03:57:07;14.20;99.90
11617;DHT22;5864;52.998;9.068;2022-07-24T03:59:35;14.20;99.90
11617;DHT22;5864;52.998;9.068;2022-07-24T04:02:03;14.10;99.90
11617;DHT22;5864;52.998;9.068;2022-07-24T04:04:30;14.10;99.90
11617;DHT22;5864;52.998;9.068;2022-07-24T04:06:58;14.10;99.90
11617;DHT22;5864;52.998;9.068;2022-07-24T04:09:25;14.20;99.90
11617;DHT22;5864;52.998;9.068;2022-07-24T04:11:52;14.10;99.90
11617;DHT22;5864;52.998;9.068;2022-07-24T04:14:22;14.10;99.90
11617;DHT22;5864;52.998;9.068;2022-07-24T04:16:49;14.10;99.90
11617;DHT22;5864;52.998;9.068;2022-07-24T04:19:17;14.10;99.90
11617;DHT22;5864;52.998;9.068;2022-07-24T04:21:44;14.10;99.90
11617;DHT22;5864;52.998;9.068;2022-07-24T04:24:12;14.20;99.90
11617;DHT22;5864;52.998;9.068;2022-07-24T04:26:39;14.20;99.90
11617;DHT22;5864;52.998;9.068;2022-07-24T04:29:07;14.30;99.90
11617;DHT22;5864;52.998;9.068;2022-07-24T04:31:36;14.40;99.90
11617;DHT22;5864;52.998;9.068;2022-07-24T04:34:03;14.40;99.90
11617;DHT22;5864;52.998;9.068;2022-07-24T04:36:31;14.50;99.90
11617;DHT22;5864;52.998;9.068;2022-07-24T04:38:59;14.60;99.90
11617;DHT22;5864;52.998;9.068;2022-07-24T04:41:26;14.70;99.90
11617;DHT22;5864;52.998;9.068;2022-07-24T04:43:54;14.80;99.90
11617;DHT22;5864;52.998;9.068;2022-07-24T04:46:21;14.90;99.90
11617;DHT22;5864;52.998;9.068;2022-07-24T04:48:50;14.90;99.90
11617;DHT22;5864;52.998;9.068;2022-07-24T04:51:17;14.90;99.90
11617;DHT22;5864;52.998;9.068;2022-07-24T04:53:45;15.10;99.90
11617;DHT22;5864;52.998;9.068;2022-07-24T04:56:12;15.20;99.90
11617;DHT22;5864;52.998;9.068;2022-07-24T04:58:41;15.30;99.90
11617;DHT22;5864;52.998;9.068;2022-07-24T05:01:08;15.40;99.90
11617;DHT22;5864;52.998;9.068;2022-07-24T05:03:35;15.50;99.90
11617;DHT22;5864;52.998;9.068;2022-07-24T05:06:05;15.40;99.90
11617;DHT22;5864;52.998;9.068;2022-07-24T05:08:32;15.50;99.90
11617;DHT22;5864;52.998;9.068;2022-07-24T05:11:00;15.50;99.90
11617;DHT22;5864;52.998;9.068;2022-07-24T05:13:27;15.70;99.90
11617;DHT22;5864;52.998;9.068;2022-07-24T05:15:55;15.90;99.90
11617;DHT22;5864;52.998;9.068;2022-07-24T05:18:22;16.00;99.90
11617;DHT22;5864;52.998;9.068;2022-07-24T05:20:49;16.00;99.90
11617;DHT22;5864;52.998;9.068;2022-07-24T05:23:19;16.10;99.90
11617;DHT22;5864;52.998;9.068;2022-07-24T05:25:46;16.20;99.90
11617;DHT22;5864;52.998;9.068;2022-07-24T05:28:14;16.30;99.90
11617;DHT22;5864;52.998;9.068;2022-07-24T05:30:41;16.40;99.90
11617;DHT22;5864;52.998;9.068;2022-07-24T05:33:09;16.60;99.90
11617;DHT22;5864;52.998;9.068;2022-07-24T05:35:36;16.70;99.90
11617;DHT22;5864;52.998;9.068;2022-07-24T05:38:03;16.70;99.90
11617;DHT22;5864;52.998;9.068;2022-07-24T05:40:32;16.70;99.90
11617;DHT22;5864;52.998;9.068;2022-07-24T05:43:00;16.70;99.90
11617;DHT22;5864;52.998;9.068;2022-07-24T05:45:27;16.80;99.90
11617;DHT22;5864;52.998;9.068;2022-07-24T05:47:55;16.90;99.90
11617;DHT22;5864;52.998;9.068;2022-07-24T05:50:23;17.00;99.90
11617;DHT22;5864;52.998;9.068;2022-07-24T05:52:50;17.10;99.90
11617;DHT22;5864;52.998;9.068;2022-07-24T05:55:18;17.20;99.90
11617;DHT22;5864;52.998;9.068;2022-07-24T05:57:47;17.30;99.90
11617;DHT22;5864;52.998;9.068;2022-07-24T06:00:15;17.30;99.90
11617;DHT22;5864;52.998;9.068;2022-07-24T06:02:45;17.30;99.90
11617;DHT22;5864;52.998;9.068;2022-07-24T06:05:13;17.50;99.90
11617;DHT22;5864;52.998;9.068;2022-07-24T06:07:40;17.70;99.90
11617;DHT22;5864;52.998;9.068;2022-07-24T06:10:09;17.80;99.90
11617;DHT22;5864;52.998;9.068;2022-07-24T06:12:36;18.00;99.90
11617;DHT22;5864;52.998;9.068;2022-07-24T06:15:06;18.10;99.90
11617;DHT22;5864;52.998;9.068;2022-07-24T06:17:34;18.20;99.90
11617;DHT22;5864;52.998;9.068;2022-07-24T06:20:01;18.40;99.90
11617;DHT22;5864;52.998;9.068;2022-07-24T06:22:29;18.70;99.90
11617;DHT22;5864;52.998;9.068;2022-07-24T06:24:57;18.70;99.90
11617;DHT22;5864;52.998;9.068;2022-07-24T06:27:24;18.90;99.90
11617;DHT22;5864;52.998;9.068;2022-07-24T06:29:52;18.90;99.90
11617;DHT22;5864;52.998;9.068;2022-07-24T06:32:20;18.90;99.90
11617;DHT22;5864;52.998;9.068;2022-07-24T06:34:48;19.30;99.90
11617;DHT22;5864;52.998;9.068;2022-07-24T06:37:16;19.40;99.90
11617;DHT22;5864;52.998;9.068;2022-07-24T06:39:43;19.60;99.90
11617;DHT22;5864;52.998;9.068;2022-07-24T06:42:11;19.90;99.90
11617;DHT22;5864;52.998;9.068;2022-07-24T06:44:38;20.10;99.90
11617;DHT22;5864;52.998;9.068;2022-07-24T06:47:06;20.40;99.90
11617;DHT22;5864;52.998;9.068;2022-07-24T06:49:35;20.40;99.90
11617;DHT22;5864;52.998;9.068;2022-07-24T06:52:03;20.70;99.90
11617;DHT22;5864;52.998;9.068;2022-07-24T06:54:30;20.90;99.90
11617;DHT22;5864;52.998;9.068;2022-07-24T06:56:57;21.20;99.90
11617;DHT22;5864;52.998;9.068;2022-07-24T06:59:25;21.30;99.90
11617;DHT22;5864;52.998;9.068;2022-07-24T07:01:52;21.40;99.90
11617;DHT22;5864;52.998;9.068;2022-07-24T07:04:20;21.40;99.90
11617;DHT22;5864;52.998;9.068;2022-07-24T07:06:49;21.70;99.90
11617;DHT22;5864;52.998;9.068;2022-07-24T07:09:16;21.90;99.90
11617;DHT22;5864;52.998;9.068;2022-07-24T07:11:44;22.20;99.90
11617;DHT22;5864;52.998;9.068;2022-07-24T07:14:12;22.40;99.90
11617;DHT22;5864;52.998;9.068;2022-07-24T07:16:39;22.50;99.90
11617;DHT22;5864;52.998;9.068;2022-07-24T07:19:07;22.80;99.90
11617;DHT22;5864;52.998;9.068;2022-07-24T07:21:34;22.90;99.90
11617;DHT22;5864;52.998;9.068;2022-07-24T07:24:05;23.20;99.90
11617;DHT22;5864;52.998;9.068;2022-07-24T07:26:33;23.60;99.90
11617;DHT22;5864;52.998;9.068;2022-07-24T07:29:01;24.00;99.90
11617;DHT22;5864;52.998;9.068;2022-07-24T07:31:29;24.60;99.90
11617;DHT22;5864;52.998;9.068;2022-07-24T07:33:57;24.50;99.80
11617;DHT22;5864;52.998;9.068;2022-07-24T07:36:25;24.40;99.40
11617;DHT22;5864;52.998;9.068;2022-07-24T07:38:53;24.70;99.90
11617;DHT22;5864;52.998;9.068;2022-07-24T07:41:22;25.10;98.30
11617;DHT22;5864;52.998;9.068;2022-07-24T07:43:49;25.30;97.90
11617;DHT22;5864;52.998;9.068;2022-07-24T07:46:17;25.20;97.90
11617;DHT22;5864;52.998;9.068;2022-07-24T07:48:44;25.40;98.40
11617;DHT22;5864;52.998;9.068;2022-07-24T07:51:12;25.80;96.90
11617;DHT22;5864;52.998;9.068;2022-07-24T07:53:40;25.90;96.60
11617;DHT22;5864;52.998;9.068;2022-07-24T07:56:07;26.00;96.40
11617;DHT22;5864;52.998;9.068;2022-07-24T07:58:37;26.10;96.10
11617;DHT22;5864;52.998;9.068;2022-07-24T08:01:04;26.10;96.40
11617;DHT22;5864;52.998;9.068;2022-07-24T08:03:32;26.50;95.50
11617;DHT22;5864;52.998;9.068;2022-07-24T08:05:59;26.70;95.80
11617;DHT22;5864;52.998;9.068;2022-07-24T08:08:27;27.10;95.40
11617;DHT22;5864;52.998;9.068;2022-07-24T08:13:22;27.60;93.90
11617;DHT22;5864;52.998;9.068;2022-07-24T08:15:51;27.90;94.60
11617;DHT22;5864;52.998;9.068;2022-07-24T08:18:18;28.10;94.40
11617;DHT22;5864;52.998;9.068;2022-07-24T08:20:46;27.90;92.90
11617;DHT22;5864;52.998;9.068;2022-07-24T08:23:13;28.00;92.80
11617;DHT22;5864;52.998;9.068;2022-07-24T08:25:41;28.20;92.50
11617;DHT22;5864;52.998;9.068;2022-07-24T08:47:57;30.20;91.70
11617;DHT22;5864;52.998;9.068;2022-07-24T08:52:56;30.50;86.50
11617;DHT22;5864;52.998;9.068;2022-07-24T08:55:24;31.00;86.50
11617;DHT22;5864;52.998;9.068;2022-07-24T09:00:20;31.00;80.20
11617;DHT22;5864;52.998;9.068;2022-07-24T09:02:47;30.90;82.40
11617;DHT22;5864;52.998;9.068;2022-07-24T09:05:15;30.80;84.00
11617;DHT22;5864;52.998;9.068;2022-07-24T09:07:44;31.10;78.50
11617;DHT22;5864;52.998;9.068;2022-07-24T09:10:14;31.00;79.90
11617;DHT22;5864;52.998;9.068;2022-07-24T09:12:44;31.30;79.00
11617;DHT22;5864;52.998;9.068;2022-07-24T09:15:14;31.20;78.60
11617;DHT22;5864;52.998;9.068;2022-07-24T09:17:50;31.50;81.00
11617;DHT22;5864;52.998;9.068;2022-07-24T09:20:18;31.90;78.00
11617;DHT22;5864;52.998;9.068;2022-07-24T09:22:47;31.50;75.70
11617;DHT22;5864;52.998;9.068;2022-07-24T09:25:18;31.80;76.10
11617;DHT22;5864;52.998;9.068;2022-07-24T09:27:48;31.80;76.50
11617;DHT22;5864;52.998;9.068;2022-07-24T09:30:25;31.80;74.10
11617;DHT22;5864;52.998;9.068;2022-07-24T09:32:54;31.50;75.50
11617;DHT22;5864;52.998;9.068;2022-07-24T09:35:23;31.50;75.10
11617;DHT22;5864;52.998;9.068;2022-07-24T09:37:56;31.70;75.40
11617;DHT22;5864;52.998;9.068;2022-07-24T09:40:29;31.70;76.10
11617;DHT22;5864;52.998;9.068;2022-07-24T09:43:15;32.30;74.00
11617;DHT22;5864;52.998;9.068;2022-07-24T09:45:58;32.70;74.90
11617;DHT22;5864;52.998;9.068;2022-07-24T09:48:28;33.40;74.30
11617;DHT22;5864;52.998;9.068;2022-07-24T09:50:57;33.80;72.10
11617;DHT22;5864;52.998;9.068;2022-07-24T09:53:28;34.10;67.30
11617;DHT22;5864;52.998;9.068;2022-07-24T09:55:58;33.40;66.50
11617;DHT22;5864;52.998;9.068;2022-07-24T09:58:26;33.00;68.00
11617;DHT22;5864;52.998;9.068;2022-07-24T10:00:56;32.60;69.00
11617;DHT22;5864;52.998;9.068;2022-07-24T10:03:26;32.40;69.30
11617;DHT22;5864;52.998;9.068;2022-07-24T10:05:57;32.20;70.00
11617;DHT22;5864;52.998;9.068;2022-07-24T10:08:28;32.10;69.20
11617;DHT22;5864;52.998;9.068;2022-07-24T10:10:56;31.50;70.00
11617;DHT22;5864;52.998;9.068;2022-07-24T10:13:25;31.50;70.70
11617;DHT22;5864;52.998;9.068;2022-07-24T10:16:18;32.10;70.00
11617;DHT22;5864;52.998;9.068;2022-07-24T10:18:50;32.50;70.70
11617;DHT22;5864;52.998;9.068;2022-07-24T10:21:19;32.80;67.40
11617;DHT22;5864;52.998;9.068;2022-07-24T10:24:10;32.40;69.60
11617;DHT22;5864;52.998;9.068;2022-07-24T10:26:40;31.60;69.90
11617;DHT22;5864;52.998;9.068;2022-07-24T10:29:09;31.60;71.20
11617;DHT22;5864;52.998;9.068;2022-07-24T10:31:38;31.30;69.70
11617;DHT22;5864;52.998;9.068;2022-07-24T10:34:10;31.70;74.90
11617;DHT22;5864;52.998;9.068;2022-07-24T10:36:44;32.20;67.80
11617;DHT22;5864;52.998;9.068;2022-07-24T10:39:25;32.20;69.20
11617;DHT22;5864;52.998;9.068;2022-07-24T10:42:05;33.10;68.00
11617;DHT22;5864;52.998;9.068;2022-07-24T10:44:36;32.80;67.60
11617;DHT22;5864;52.998;9.068;2022-07-24T10:47:07;32.50;66.70
11617;DHT22;5864;52.998;9.068;2022-07-24T10:49:46;32.40;67.90
11617;DHT22;5864;52.998;9.068;2022-07-24T10:52:25;32.20;67.20
11617;DHT22;5864;52.998;9.068;2022-07-24T10:55:29;32.80;66.80
11617;DHT22;5864;52.998;9.068;2022-07-24T10:57:59;32.80;68.10
11617;DHT22;5864;52.998;9.068;2022-07-24T11:00:30;33.30;65.30
11617;DHT22;5864;52.998;9.068;2022-07-24T11:03:00;33.50;64.10
11617;DHT22;5864;52.998;9.068;2022-07-24T11:05:30;33.40;64.80
11617;DHT22;5864;52.998;9.068;2022-07-24T11:08:32;33.50;67.50
11617;DHT22;5864;52.998;9.068;2022-07-24T11:11:13;33.50;63.10
11617;DHT22;5864;52.998;9.068;2022-07-24T11:13:59;32.70;65.60
11617;DHT22;5864;52.998;9.068;2022-07-24T11:16:32;32.90;65.00
11617;DHT22;5864;52.998;9.068;2022-07-24T11:19:33;33.00;62.50
11617;DHT22;5864;52.998;9.068;2022-07-24T11:22:18;32.90;64.40
11617;DHT22;5864;52.998;9.068;2022-07-24T11:25:13;32.50;65.40
11617;DHT22;5864;52.998;9.068;2022-07-24T11:27:48;32.90;67.40
11617;DHT22;5864;52.998;9.068;2022-07-24T11:30:17;32.80;67.00
11617;DHT22;5864;52.998;9.068;2022-07-24T11:32:45;33.30;65.30
11617;DHT22;5864;52.998;9.068;2022-07-24T11:35:13;33.70;64.30
11617;DHT22;5864;52.998;9.068;2022-07-24T11:37:42;33.10;62.70
11617;DHT22;5864;52.998;9.068;2022-07-24T11:40:14;33.00;60.20
11617;DHT22;5864;52.998;9.068;2022-07-24T11:42:43;32.30;61.70
11617;DHT22;5864;52.998;9.068;2022-07-24T11:45:11;32.30;64.10
11617;DHT22;5864;52.998;9.068;2022-07-24T11:47:39;32.70;64.40
11617;DHT22;5864;52.998;9.068;2022-07-24T11:50:07;33.00;64.10
11617;DHT22;5864;52.998;9.068;2022-07-24T11:52:37;33.10;62.90
11617;DHT22;5864;52.998;9.068;2022-07-24T11:55:07;33.20;63.30
11617;DHT22;5864;52.998;9.068;2022-07-24T11:57:36;33.50;63.20
11617;DHT22;5864;52.998;9.068;2022-07-24T12:00:08;33.60;60.00
11617;DHT22;5864;52.998;9.068;2022-07-24T12:02:37;33.10;63.60
11617;DHT22;5864;52.998;9.068;2022-07-24T12:05:09;33.20;60.60
11617;DHT22;5864;52.998;9.068;2022-07-24T12:07:36;33.60;59.80
11617;DHT22;5864;52.998;9.068;2022-07-24T12:10:05;33.90;60.60
11617;DHT22;5864;52.998;9.068;2022-07-24T12:12:35;33.70;59.70
11617;DHT22;5864;52.998;9.068;2022-07-24T12:15:06;33.70;60.90
11617;DHT22;5864;52.998;9.068;2022-07-24T12:20:21;33.70;61.50
11617;DHT22;5864;52.998;9.068;2022-07-24T12:22:49;34.10;58.40
11617;DHT22;5864;52.998;9.068;2022-07-24T12:25:18;33.90;58.30
11617;DHT22;5864;52.998;9.068;2022-07-24T12:27:46;34.00;57.60
11617;DHT22;5864;52.998;9.068;2022-07-24T12:30:21;33.90;57.40
11617;DHT22;5864;52.998;9.068;2022-07-24T12:32:55;34.30;59.00
11617;DHT22;5864;52.998;9.068;2022-07-24T12:35:23;34.70;56.20
11617;DHT22;5864;52.998;9.068;2022-07-24T12:37:51;34.90;55.70
11617;DHT22;5864;52.998;9.068;2022-07-24T12:40:24;34.40;56.70
11617;DHT22;5864;52.998;9.068;2022-07-24T12:42:59;34.60;55.20
11617;DHT22;5864;52.998;9.068;2022-07-24T12:45:29;34.80;54.40
11617;DHT22;5864;52.998;9.068;2022-07-24T12:48:16;35.50;54.30
11617;DHT22;5864;52.998;9.068;2022-07-24T12:51:01;35.40;53.80
11617;DHT22;5864;52.998;9.068;2022-07-24T12:53:31;34.80;54.80
11617;DHT22;5864;52.998;9.068;2022-07-24T12:56:13;34.30;54.30
11617;DHT22;5864;52.998;9.068;2022-07-24T12:58:53;34.00;55.00
11617;DHT22;5864;52.998;9.068;2022-07-24T13:01:24;33.90;55.90
11617;DHT22;5864;52.998;9.068;2022-07-24T13:03:55;34.10;55.10
11617;DHT22;5864;52.998;9.068;2022-07-24T13:06:38;34.40;55.30
11617;DHT22;5864;52.998;9.068;2022-07-24T13:09:07;34.60;55.00
11617;DHT22;5864;52.998;9.068;2022-07-24T13:11:35;35.00;55.50
11617;DHT22;5864;52.998;9.068;2022-07-24T13:14:03;35.10;54.30
11617;DHT22;5864;52.998;9.068;2022-07-24T13:16:34;35.10;54.10
11617;DHT22;5864;52.998;9.068;2022-07-24T13:19:03;34.70;52.30
11617;DHT22;5864;52.998;9.068;2022-07-24T13:21:30;34.10;54.50
11617;DHT22;5864;52.998;9.068;2022-07-24T13:23:58;33.90;54.10
11617;DHT22;5864;52.998;9.068;2022-07-24T13:26:26;33.40;54.90
11617;DHT22;5864;52.998;9.068;2022-07-24T13:28:53;33.10;54.70
11617;DHT22;5864;52.998;9.068;2022-07-24T13:31:21;33.20;56.80
11617;DHT22;5864;52.998;9.068;2022-07-24T13:33:50;33.30;56.60
11617;DHT22;5864;52.998;9.068;2022-07-24T13:36:18;33.60;54.80
11617;DHT22;5864;52.998;9.068;2022-07-24T13:38:46;33.40;55.60
11617;DHT22;5864;52.998;9.068;2022-07-24T13:41:14;33.40;54.90
11617;DHT22;5864;52.998;9.068;2022-07-24T13:43:43;33.00;55.60
11617;DHT22;5864;52.998;9.068;2022-07-24T13:46:10;33.10;56.20
11617;DHT22;5864;52.998;9.068;2022-07-24T13:48:38;32.80;56.70
11617;DHT22;5864;52.998;9.068;2022-07-24T13:51:07;32.90;57.00
11617;DHT22;5864;52.998;9.068;2022-07-24T13:53:34;32.70;56.10
11617;DHT22;5864;52.998;9.068;2022-07-24T13:56:04;32.70;55.60
11617;DHT22;5864;52.998;9.068;2022-07-24T13:58:32;32.60;56.40
11617;DHT22;5864;52.998;9.068;2022-07-24T14:01:02;32.70;57.80
11617;DHT22;5864;52.998;9.068;2022-07-24T14:03:29;33.00;58.20
11617;DHT22;5864;52.998;9.068;2022-07-24T14:05:57;33.30;57.00
11617;DHT22;5864;52.998;9.068;2022-07-24T14:08:27;33.20;56.00
11617;DHT22;5864;52.998;9.068;2022-07-24T14:10:55;33.20;56.60
11617;DHT22;5864;52.998;9.068;2022-07-24T14:13:22;33.30;55.90
11617;DHT22;5864;52.998;9.068;2022-07-24T14:15:50;33.10;56.90
11617;DHT22;5864;52.998;9.068;2022-07-24T14:18:18;33.30;58.00
11617;DHT22;5864;52.998;9.068;2022-07-24T14:20:46;33.50;57.90
11617;DHT22;5864;52.998;9.068;2022-07-24T14:23:13;33.50;54.80
11617;DHT22;5864;52.998;9.068;2022-07-24T14:25:42;33.40;55.40
11617;DHT22;5864;52.998;9.068;2022-07-24T14:28:10;33.60;55.90
11617;DHT22;5864;52.998;9.068;2022-07-24T14:30:38;33.60;55.30
11617;DHT22;5864;52.998;9.068;2022-07-24T14:33:06;33.50;55.30
11617;DHT22;5864;52.998;9.068;2022-07-24T14:35:34;33.50;56.10
11617;DHT22;5864;52.998;9.068;2022-07-24T14:38:01;33.60;56.70
11617;DHT22;5864;52.998;9.068;2022-07-24T14:40:29;33.90;56.90
11617;DHT22;5864;52.998;9.068;2022-07-24T14:42:58;33.80;55.90
11617;DHT22;5864;52.998;9.068;2022-07-24T14:45:26;33.80;54.50
11617;DHT22;5864;52.998;9.068;2022-07-24T14:47:53;33.40;55.90
11617;DHT22;5864;52.998;9.068;2022-07-24T14:50:21;33.30;55.50
11617;DHT22;5864;52.998;9.068;2022-07-24T14:52:48;33.00;55.50
11617;DHT22;5864;52.998;9.068;2022-07-24T14:55:16;32.60;56.80
11617;DHT22;5864;52.998;9.068;2022-07-24T14:57:43;32.50;57.90
11617;DHT22;5864;52.998;9.068;2022-07-24T15:00:13;32.60;57.70
11617;DHT22;5864;52.998;9.068;2022-07-24T15:02:40;32.80;57.30
11617;DHT22;5864;52.998;9.068;2022-07-24T15:05:08;32.50;57.50
11617;DHT22;5864;52.998;9.068;2022-07-24T15:07:36;32.50;57.60
11617;DHT22;5864;52.998;9.068;2022-07-24T15:10:04;32.50;57.10
11617;DHT22;5864;52.998;9.068;2022-07-24T15:12:32;32.40;58.40
11617;DHT22;5864;52.998;9.068;2022-07-24T15:14:59;32.40;58.80
11617;DHT22;5864;52.998;9.068;2022-07-24T15:17:28;32.60;58.40
11617;DHT22;5864;52.998;9.068;2022-07-24T15:19:55;32.50;58.20
11617;DHT22;5864;52.998;9.068;2022-07-24T15:22:23;32.50;58.60
11617;DHT22;5864;52.998;9.068;2022-07-24T15:24:50;32.80;58.80
11617;DHT22;5864;52.998;9.068;2022-07-24T15:27:18;32.80;58.40
11617;DHT22;5864;52.998;9.068;2022-07-24T15:29:45;32.90;57.80
11617;DHT22;5864;52.998;9.068;2022-07-24T15:32:13;33.00;57.70
11617;DHT22;5864;52.998;9.068;2022-07-24T15:34:42;32.90;57.20
11617;DHT22;5864;52.998;9.068;2022-07-24T15:37:09;32.70;57.60
11617;DHT22;5864;52.998;9.068;2022-07-24T15:39:37;32.40;57.00
11617;DHT22;5864;52.998;9.068;2022-07-24T15:42:05;32.20;57.80
11617;DHT22;5864;52.998;9.068;2022-07-24T15:44:32;32.00;58.10
11617;DHT22;5864;52.998;9.068;2022-07-24T15:47:00;31.90;58.00
11617;DHT22;5864;52.998;9.068;2022-07-24T15:49:27;32.10;58.60
11617;DHT22;5864;52.998;9.068;2022-07-24T15:51:56;32.00;58.70
11617;DHT22;5864;52.998;9.068;2022-07-24T15:54:23;32.10;58.80
11617;DHT22;5864;52.998;9.068;2022-07-24T15:56:51;32.10;59.00
11617;DHT22;5864;52.998;9.068;2022-07-24T15:59:19;32.30;59.20
11617;DHT22;5864;52.998;9.068;2022-07-24T16:01:46;32.30;59.20
11617;DHT22;5864;52.998;9.068;2022-07-24T16:04:14;32.20;59.00
11617;DHT22;5864;52.998;9.068;2022-07-24T16:06:43;32.30;59.40
11617;DHT22;5864;52.998;9.068;2022-07-24T16:09:12;32.60;59.00
11617;DHT22;5864;52.998;9.068;2022-07-24T16:11:40;32.40;58.80
11617;DHT22;5864;52.998;9.068;2022-07-24T16:14:08;32.20;59.30
11617;DHT22;5864;52.998;9.068;2022-07-24T16:16:35;32.10;59.20
11617;DHT22;5864;52.998;9.068;2022-07-24T16:19:03;32.00;58.90
11617;DHT22;5864;52.998;9.068;2022-07-24T16:21:32;32.10;59.00
11617;DHT22;5864;52.998;9.068;2022-07-24T16:23:59;32.20;59.50
11617;DHT22;5864;52.998;9.068;2022-07-24T16:26:29;32.10;59.10